Weather observations for the past three days for
Twentynine Palms SELF Airport
Imperial (Metric)
Date Time (pdt) Wind (mph) Vis. (mi.) Weather Sky Cond. Temperature (ºF) Relative Humidity Wind Chill (°F) Heat Index (°F) Pressure Precipitation (in)
Air Dwpt 6 hour altimeter (in) sea level (mb) 1 hr 3 hr 6 hr
Max. Min.
06 20:54 S 5 10.00 NULL NULL 75 32 21% 76 30.04 1014.1
06 19:54 Calm 10.00 NULL NULL 79 32 18% 78 30.01 1013.3
06 18:54 N 10 10.00 NULL NULL 82 32 16% 80 30 1012.8
06 16:54 N 8 10.00 NULL NULL 82.9 33.1 84.9 71.1 17% 80 30 1012.7
06 15:54 Calm 10.00 NULL NULL 82 35.1 18% 80 30 1013.1
06 13:54 N 8 10.00 NULL NULL 80.1 35.1 20% 79 30.05 1014.8
06 12:54 Vrbl 5 10.00 Fair CLR 77 35.1 22% 77 30.07 1015.5
06 10:54 Calm 10.00 Fair CLR 71.1 36 71.1 55 28% 30.1 1016.7
06 09:54 NE 5 10.00 Fair CLR 69.1 37 31% 30.1 1016.6
06 07:54 W 9 10.00 Fair CLR 61 37.9 43% 30.1 1016.5
06 06:54 Calm 10.00 Fair CLR 57 37 47% 30.09 1016.4
06 04:54 W 10 10.00 Fair CLR 55.9 37 61 55.9 49% 30.06 1015.3
06 03:54 W 9 10.00 Fair CLR 55.9 37.9 51% 30.05 1015.0
06 02:54 W 10 10.00 Fair CLR 57 37.9 49% 30.04 1014.6
06 01:54 W 6 10.00 Fair CLR 57.9 37.9 48% 30.04 1014.5
06 00:54 NW 9 G 22 10.00 Fair CLR 59 37.9 46% 30.04 1014.5
05 23:54 N 9 10.00 Fair CLR 60.1 39 46% 30.02 1013.9
05 22:54 N 10 G 24 10.00 Fair CLR 61 39 73.9 61 44% 30.01 1013.6
05 21:54 NW 18 G 29 10.00 Fair CLR 63 39 41% 29.98 1012.7
05 20:54 NW 17 G 31 10.00 Fair CLR 64.9 37.9 37% 29.96 1011.8
05 19:54 W 20 G 26 10.00 Partly Cloudy SCT090 68 36 31% 29.92 1010.7
05 17:54 W 13 G 20 10.00 Overcast OVC090 72 28.9 20% 29.89 1009.5
05 16:54 Vrbl 5 G 21 10.00 Fair CLR 72 28.9 73 63 20% 29.88 1009.3
05 15:54 N 5 10.00 A Few Clouds FEW090 70 30.9 23% 29.89 987.4
05 14:54 Calm 10.00 Overcast OVC085 70 33.1 26% 29.91 1010.4
05 13:54 W 8 10.00 A Few Clouds FEW070 69.1 34 27% 29.93 988.8
05 12:54 Vrbl 7 10.00 Overcast OVC090 69.1 34 27% 29.95 1011.5
05 11:54 NW 5 10.00 A Few Clouds FEW080 69.1 33.1 26% 29.95 1011.7
05 09:54 W 6 10.00 Fair CLR 63 36 37% 29.96 989.5
05 08:54 NW 5 10.00 Fair CLR 61 37.9 43% 29.95 989.2
05 07:54 W 7 10.00 Fair CLR 57.9 37.9 48% 29.94 1011.5
05 06:54 Vrbl 5 10.00 Fair CLR 54 37 53% 29.93 1011.2
05 05:54 NW 7 10.00 Fair CLR 53.1 37.9 57% 29.93 988.6
05 03:54 W 12 10.00 Fair CLR 53.1 33.1 47% 29.92 1010.5
05 02:54 W 8 10.00 Fair CLR 55 33.1 44% 29.92 1010.5
05 01:54 Calm 10.00 Fair CLR 54 33.1 45% 29.93 1010.8
04 23:54 W 8 10.00 Fair CLR 57 33.1 41% 29.94 988.8
04 22:54 W 6 10.00 Fair CLR 59 32 73.9 59 36% 29.94 989.0
04 21:54 W 8 10.00 Fair CLR 60.1 32 35% 29.94 989.1
04 20:54 W 17 G 29 10.00 Fair CLR 62.1 32 32% 29.92 988.3
04 19:54 SW 18 10.00 Fair CLR 64 35.1 34% 29.9 987.6
04 18:54 SW 22 G 31 10.00 Fair and Breezy CLR 68 33.1 27% 29.87 1008.9
04 17:54 SW 23 10.00 Fair and Breezy CLR 71.1 33.1 25% 29.87 1008.8
04 16:54 SW 6 10.00 Fair CLR 72 28.9 73 64.9 20% 29.87 1008.8
04 14:54 SW 12 G 20 10.00 Fair CLR 72 28.9 20% 29.91 1010.2
04 13:54 SW 15 G 21 10.00 Fair CLR 73 28.9 19% 29.92 1010.4
04 10:54 Vrbl 3 10.00 Fair CLR 64.9 33.1 64.9 57.9 31% 29.96 1011.9
04 09:54 NW 9 10.00 Fair CLR 63 35.1 35% 29.96 1011.8
04 08:54 NW 10 10.00 Fair CLR 62.1 35.1 37% 29.95 1011.5
04 07:54 NW 8 10.00 Fair CLR 60.1 35.1 39% 29.95 1011.2
04 06:54 W 12 10.00 Fair CLR 59 36 42% 29.94 1011.1
04 05:54 NW 10 10.00 Fair CLR 59 36 42% 29.92 1010.1
04 04:54 NW 9 10.00 Fair CLR 59 35.1 66 59 41% 29.91 1009.8
04 03:54 NW 14 G 22 10.00 Fair CLR 60.1 35.1 39% 29.91 1009.6
04 00:54 W 10 10.00 Fair CLR 63 35.1 35% 29.89 1008.9
03 23:54 W 15 10.00 Fair CLR 64 33.1 32% 29.87 1008.1
03 22:54 W 16 10.00 Fair CLR 66 30 84 66 26% 29.85 1007.4
03 21:54 SW 15 10.00 Fair CLR 68 28 22% 29.84 1006.9
Date Time (pdt) Wind (mph) Vis. (mi.) Weather Sky Cond. Air Dwpt Max. Min. Relative Humidity Wind Chill (°F) Heat Index (°F) altimeter (in) sea level (mb) 1 hr 3 hr 6 hr
6 hour
Temperature (ºF) Pressure Precipitation (in)